createdAt,value
2019-04-22T00:02:15.179Z,10.44
2019-04-22T00:07:56.218Z,10.39
2019-04-22T00:18:13.034Z,10.28
2019-04-22T00:23:30.511Z,10.26
2019-04-22T00:33:02.685Z,10
2019-04-22T00:36:54.122Z,9.9
2019-04-22T00:57:32.011Z,9.57
2019-04-22T01:06:57.144Z,9.5
2019-04-22T01:10:51.987Z,9.46
2019-04-22T01:21:28.627Z,9.2
2019-04-22T01:26:04.759Z,9.14
2019-04-22T01:30:45.871Z,9.12
2019-04-22T01:35:38.509Z,9.06
2019-04-22T01:40:52.428Z,8.86
2019-04-22T01:45:31.087Z,8.63
2019-04-22T01:55:36.752Z,8.5
2019-04-22T01:59:40.009Z,8.66
2019-04-22T02:10:02.047Z,8.87
2019-04-22T02:14:49.892Z,8.89
2019-04-22T02:39:54.696Z,8.42
2019-04-22T02:44:27.769Z,8.28
2019-04-22T02:49:28.863Z,8.22
2019-04-22T02:53:13.055Z,8.15
2019-04-22T03:04:00.191Z,8.03
2019-04-22T03:07:40.458Z,7.74
2019-04-22T03:13:08.627Z,7.62
2019-04-22T03:18:19.214Z,7.62
2019-04-22T03:24:19.706Z,7.69
2019-04-22T03:47:15.827Z,7.16
2019-04-22T03:52:26.573Z,7.02
2019-04-22T03:57:36.618Z,6.8
2019-04-22T04:03:06.791Z,6.85
2019-04-22T04:06:04.619Z,6.93
2019-04-22T04:11:58.751Z,6.89
2019-04-22T04:15:46.016Z,6.83
2019-04-22T04:21:40.532Z,6.97
2019-04-22T04:25:51.410Z,7
2019-04-22T04:30:59.421Z,6.99
2019-04-22T04:40:20.509Z,7.02
2019-04-22T04:50:11.729Z,7.27
2019-04-22T05:00:47.863Z,8.04
2019-04-22T05:05:31.239Z,8.22
2019-04-22T05:10:08.884Z,8.51
2019-04-22T05:19:35.560Z,9.68
2019-04-22T05:24:16.214Z,10.06
2019-04-22T05:34:07.746Z,10.97
2019-04-22T05:39:05.608Z,11.4
2019-04-22T05:53:32.221Z,12.48
2019-04-22T05:58:14.015Z,12.38
2019-04-22T06:02:56.486Z,12.3
2019-04-22T06:07:59.996Z,12.16
2019-04-22T06:13:23.158Z,12.08
2019-04-22T06:27:47.045Z,13.37
2019-04-22T06:32:17.135Z,13.27
2019-04-22T06:36:59.070Z,12.88
2019-04-22T06:52:00.948Z,13.94
2019-04-22T06:56:34.576Z,13.8
2019-04-22T07:01:48.482Z,13.79
2019-04-22T07:10:54.570Z,15.42
2019-04-22T07:16:18.218Z,14.65
2019-04-22T07:26:07.249Z,14.79
2019-04-22T07:31:33.911Z,15.03
2019-04-22T07:39:49.655Z,15.73
2019-04-22T07:49:58.841Z,15.32
2019-04-22T08:01:01.791Z,15.54
2019-04-22T08:05:18.221Z,15.75
2019-04-22T08:14:06.669Z,16.19
2019-04-22T08:23:50.432Z,16.3
2019-04-22T08:33:54.191Z,16.34
2019-04-22T08:38:23.735Z,16.71
2019-04-22T08:48:35.972Z,16.64
2019-04-22T08:53:07.687Z,17.06
2019-04-22T08:58:14.569Z,16.4
2019-04-22T09:08:26.125Z,17.06
2019-04-22T09:13:29.642Z,16.76
2019-04-22T09:18:01.628Z,17.14
2019-04-22T09:22:04.307Z,17.51
2019-04-22T09:31:53.159Z,17.56
2019-04-22T09:47:17.579Z,17.93
2019-04-22T09:52:27.569Z,18.03
2019-04-22T09:56:03.325Z,17.93
2019-04-22T10:01:11.896Z,17.55
2019-04-22T10:10:56.411Z,17.46
2019-04-22T10:16:30.668Z,18.04
2019-04-22T10:21:44.081Z,17.13
2019-04-22T10:26:27.732Z,17.65
2019-04-22T10:30:02.583Z,17.77
2019-04-22T10:34:28.747Z,18.47
2019-04-22T10:39:08.833Z,18.44
2019-04-22T10:44:06.578Z,17.68
2019-04-22T10:49:08.656Z,17.84
2019-04-22T10:54:09.434Z,18.05
2019-04-22T10:58:08.940Z,18.26
2019-04-22T11:03:08.334Z,17.96
2019-04-22T11:08:20.120Z,18.07
2019-04-22T11:13:09.163Z,18.52
2019-04-22T11:18:07.728Z,18.07
2019-04-22T11:23:08.681Z,18.56
2019-04-22T11:28:11.410Z,18.53
2019-04-22T11:32:08.426Z,18.27
2019-04-22T11:37:06.682Z,18.59
2019-04-22T11:42:08.317Z,18.86
2019-04-22T11:47:09.312Z,18.78
2019-04-22T11:52:11.244Z,18.95
2019-04-22T11:57:07.825Z,19.06
2019-04-22T12:02:08.793Z,18.97
2019-04-22T12:07:06.710Z,19.39
2019-04-22T12:12:08.035Z,18.57
2019-04-22T12:16:09.114Z,19.22
2019-04-22T12:21:08.842Z,19
2019-04-22T12:26:16.793Z,19.92
2019-04-22T12:31:07.174Z,18.66
2019-04-22T12:36:07.234Z,18.89
2019-04-22T12:41:11.903Z,18.91
2019-04-22T12:46:08.390Z,19.01
2019-04-22T12:51:07.444Z,19.09
2019-04-22T12:55:07.904Z,18.62
2019-04-22T13:00:08.720Z,19.15
2019-04-22T13:05:08.008Z,19.23
2019-04-22T13:10:08.344Z,18.88
2019-04-22T13:15:09.754Z,18.96
2019-04-22T13:20:07.887Z,19.06
2019-04-22T13:25:08.263Z,19.17
2019-04-22T13:30:10.029Z,19.35
2019-04-22T13:35:08.854Z,19.17
2019-04-22T13:39:08.714Z,19.06
2019-04-22T13:44:08.871Z,19.11
2019-04-22T13:59:28.628Z,19.67
2019-04-22T14:04:07.508Z,18.87
2019-04-22T14:08:10.648Z,19.01
2019-04-22T14:13:08.268Z,19.03
2019-04-22T14:18:07.686Z,19.43
2019-04-22T14:23:11.492Z,19.36
2019-04-22T14:28:17.038Z,18.93
2019-04-22T14:33:07.205Z,18.99
2019-04-22T14:38:08.352Z,18.81
2019-04-22T14:47:50.959Z,19.13
2019-04-22T14:57:07.784Z,18.61
2019-04-22T15:02:07.858Z,18.5
2019-04-22T15:07:09.042Z,18.61
2019-04-22T15:12:27.674Z,17.89
2019-04-22T15:17:08.669Z,18.28
2019-04-22T15:21:07.313Z,18.21
2019-04-22T15:26:08.373Z,18.37
2019-04-22T15:31:06.803Z,18.21
2019-04-22T15:36:08.181Z,18.41
2019-04-22T15:41:07.338Z,18.44
2019-04-22T15:46:07.976Z,18.05
2019-04-22T15:51:08.720Z,17.97
2019-04-22T15:56:06.683Z,17.8
2019-04-22T16:00:38.157Z,17.92
2019-04-22T16:05:08.352Z,17.43
2019-04-22T16:10:09.973Z,17.56
2019-04-22T16:15:13.115Z,17.38
2019-04-22T16:20:08.948Z,17.43
2019-04-22T16:25:08.893Z,16.95
2019-04-22T16:30:10.021Z,16.81
2019-04-22T16:35:06.733Z,16.9
2019-04-22T16:40:09.184Z,17.01
2019-04-22T16:44:08.774Z,16.96
2019-04-22T16:49:07.947Z,16.67
2019-04-22T16:54:08.356Z,16.75
2019-04-22T16:59:08.616Z,16.47
2019-04-22T17:04:07.359Z,16.58
2019-04-22T17:09:07.145Z,16.74
2019-04-22T17:14:08.138Z,16.41
2019-04-22T17:18:07.720Z,16.28
2019-04-22T17:23:07.746Z,16.12
2019-04-22T17:28:07.671Z,15.82
2019-04-22T17:33:08.118Z,15.68
2019-04-22T17:38:23.373Z,15.41
2019-04-22T17:48:51.658Z,14.95
2019-04-22T17:52:35.944Z,14.71
2019-04-22T17:57:35.377Z,14.56
2019-04-22T18:02:44.404Z,14.4
2019-04-22T18:07:48.688Z,14.3
2019-04-22T18:12:42.177Z,14.24
2019-04-22T18:17:44.818Z,14.05
2019-04-22T18:22:31.784Z,13.85
2019-04-22T18:28:11.379Z,13.75
2019-04-22T18:36:40.203Z,13.4
2019-04-22T18:41:17.618Z,13.45
2019-04-22T18:46:51.968Z,13.23
2019-04-22T18:56:46.385Z,12.91
2019-04-22T19:01:10.150Z,12.82
2019-04-22T19:05:36.766Z,12.65
2019-04-22T19:11:08.074Z,12.59
2019-04-22T19:16:12.545Z,12.43
2019-04-22T19:21:01.074Z,12.43
2019-04-22T19:25:35.381Z,12.36
2019-04-22T19:30:47.642Z,12.2
2019-04-22T19:35:39.661Z,12.05
2019-04-22T19:40:00.581Z,12
2019-04-22T19:44:47.933Z,12.15
2019-04-22T19:49:57.748Z,12.26
2019-04-22T19:59:36.831Z,11.99
2019-04-22T20:04:52.291Z,11.93
2019-04-22T20:09:57.046Z,11.97
2019-04-22T20:13:54.819Z,12.2
2019-04-22T20:18:56.309Z,12.43
2019-04-22T20:23:36.937Z,12.6
2019-04-22T20:28:52.143Z,12.57
2019-04-22T20:33:49.489Z,12.32
2019-04-22T20:38:49.135Z,12.25
2019-04-22T20:47:33.930Z,11.81
2019-04-22T20:53:04.974Z,11.76
2019-04-22T20:57:52.895Z,11.66
2019-04-22T21:07:38.283Z,11.3
2019-04-22T21:12:33.595Z,11.24
2019-04-22T21:16:42.915Z,11.23
2019-04-22T21:26:43.332Z,11.15
2019-04-22T21:31:51.014Z,11.1
2019-04-22T21:37:02.181Z,11.13
2019-04-22T21:41:51.246Z,11.18
2019-04-22T21:46:38.892Z,11.17
2019-04-22T21:50:59.350Z,11.02
2019-04-22T21:56:11.047Z,11.09
2019-04-22T22:01:06.016Z,11.07
2019-04-22T22:05:38.977Z,10.92
2019-04-22T22:11:38.463Z,10.74
2019-04-22T22:16:38.212Z,10.71
2019-04-22T22:31:21.761Z,10.82
2019-04-22T22:35:06.566Z,10.98
2019-04-22T22:39:51.097Z,11.04
2019-04-22T22:44:24.877Z,11
2019-04-22T22:50:37.025Z,10.94
2019-04-22T22:55:44.200Z,11.03
2019-04-22T22:59:49.920Z,11.04
2019-04-22T23:09:25.594Z,10.97
2019-04-22T23:18:12.029Z,10.87
2019-04-22T23:24:32.832Z,10.99
2019-04-22T23:27:41.671Z,10.97
2019-04-22T23:32:35.140Z,10.9
2019-04-22T23:34:00.799Z,10.9
2019-04-22T23:37:32.409Z,10.93
2019-04-22T23:47:49.414Z,10.87
2019-04-22T23:57:50.144Z,10.71
